sensor_id;sensor_type;location;lat;lon;timestamp;pressure;altitude;pressure_sealevel;temperature;humidity
5455;BME280;2750;49.050;9.250;2023-01-15T00:02:19;97553.16;;;13.51;86.71
5455;BME280;2750;49.050;9.250;2023-01-15T00:07:21;97545.34;;;13.40;87.72
5455;BME280;2750;49.050;9.250;2023-01-15T00:12:23;97534.06;;;13.62;86.49
5455;BME280;2750;49.050;9.250;2023-01-15T00:17:24;97522.56;;;13.53;86.76
5455;BME280;2750;49.050;9.250;2023-01-15T00:22:28;97519.00;;;13.65;87.19
5455;BME280;2750;49.050;9.250;2023-01-15T00:27:29;97499.97;;;13.43;87.25
5455;BME280;2750;49.050;9.250;2023-01-15T00:32:41;97495.72;;;13.53;86.99
5455;BME280;2750;49.050;9.250;2023-01-15T00:37:44;97488.34;;;13.47;86.86
5455;BME280;2750;49.050;9.250;2023-01-15T00:42:45;97490.91;;;13.69;86.89
5455;BME280;2750;49.050;9.250;2023-01-15T00:47:47;97479.25;;;13.41;88.44
5455;BME280;2750;49.050;9.250;2023-01-15T00:52:51;97471.31;;;13.43;88.29
5455;BME280;2750;49.050;9.250;2023-01-15T00:57:52;97460.75;;;13.55;88.01
5455;BME280;2750;49.050;9.250;2023-01-15T01:02:55;97452.31;;;13.63;87.87
5455;BME280;2750;49.050;9.250;2023-01-15T01:07:58;97458.50;;;13.51;88.11
5455;BME280;2750;49.050;9.250;2023-01-15T01:12:59;97455.53;;;13.55;87.60
5455;BME280;2750;49.050;9.250;2023-01-15T01:18:01;97440.47;;;13.59;86.57
5455;BME280;2750;49.050;9.250;2023-01-15T01:23:04;97436.81;;;13.50;87.28
5455;BME280;2750;49.050;9.250;2023-01-15T01:28:06;97429.91;;;13.71;86.46
5455;BME280;2750;49.050;9.250;2023-01-15T01:33:07;97430.81;;;14.02;85.64
5455;BME280;2750;49.050;9.250;2023-01-15T01:38:10;97428.97;;;13.93;85.89
5455;BME280;2750;49.050;9.250;2023-01-15T01:43:16;97422.91;;;13.93;85.92
5455;BME280;2750;49.050;9.250;2023-01-15T01:48:23;97421.84;;;14.16;84.67
5455;BME280;2750;49.050;9.250;2023-01-15T01:53:29;97408.78;;;14.16;85.16
5455;BME280;2750;49.050;9.250;2023-01-15T01:58:33;97399.56;;;14.12;84.92
5455;BME280;2750;49.050;9.250;2023-01-15T02:03:36;97398.59;;;13.71;85.92
5455;BME280;2750;49.050;9.250;2023-01-15T02:08:40;97383.44;;;13.65;86.28
5455;BME280;2750;49.050;9.250;2023-01-15T02:13:46;97381.72;;;13.55;87.64
5455;BME280;2750;49.050;9.250;2023-01-15T02:18:55;97379.47;;;13.82;87.25
5455;BME280;2750;49.050;9.250;2023-01-15T02:24:05;97360.91;;;13.96;86.47
5455;BME280;2750;49.050;9.250;2023-01-15T02:29:12;97366.56;;;14.01;86.44
5455;BME280;2750;49.050;9.250;2023-01-15T02:34:19;97360.19;;;14.15;86.34
5455;BME280;2750;49.050;9.250;2023-01-15T02:39:23;97351.66;;;14.13;86.40
5455;BME280;2750;49.050;9.250;2023-01-15T02:44:29;97361.91;;;13.84;87.38
5455;BME280;2750;49.050;9.250;2023-01-15T02:49:33;97354.78;;;14.07;86.34
5455;BME280;2750;49.050;9.250;2023-01-15T02:54:40;97361.72;;;13.97;87.56
5455;BME280;2750;49.050;9.250;2023-01-15T02:59:46;97351.28;;;13.97;87.77
5455;BME280;2750;49.050;9.250;2023-01-15T03:04:52;97343.00;;;13.92;88.02
5455;BME280;2750;49.050;9.250;2023-01-15T03:09:56;97341.88;;;13.84;89.61
5455;BME280;2750;49.050;9.250;2023-01-15T03:15:04;97331.66;;;13.72;90.27
5455;BME280;2750;49.050;9.250;2023-01-15T03:20:11;97328.38;;;14.21;89.21
5455;BME280;2750;49.050;9.250;2023-01-15T03:25:20;97319.06;;;13.98;88.92
5455;BME280;2750;49.050;9.250;2023-01-15T03:30:25;97314.50;;;14.00;89.05
5455;BME280;2750;49.050;9.250;2023-01-15T03:35:44;97317.31;;;14.08;88.34
5455;BME280;2750;49.050;9.250;2023-01-15T03:40:52;97324.66;;;13.93;89.31
5455;BME280;2750;49.050;9.250;2023-01-15T03:45:58;97315.09;;;14.03;88.73
5455;BME280;2750;49.050;9.250;2023-01-15T03:51:07;97309.00;;;14.23;87.82
5455;BME280;2750;49.050;9.250;2023-01-15T03:56:13;97309.63;;;14.06;87.57
5455;BME280;2750;49.050;9.250;2023-01-15T04:01:25;97296.34;;;14.19;88.20
5455;BME280;2750;49.050;9.250;2023-01-15T04:06:28;97291.28;;;14.17;87.82
5455;BME280;2750;49.050;9.250;2023-01-15T04:11:31;97270.91;;;13.81;90.08
5455;BME280;2750;49.050;9.250;2023-01-15T04:16:34;97262.03;;;13.83;89.91
5455;BME280;2750;49.050;9.250;2023-01-15T04:21:35;97269.06;;;13.93;89.93
5455;BME280;2750;49.050;9.250;2023-01-15T04:26:37;97272.03;;;14.18;88.34
5455;BME280;2750;49.050;9.250;2023-01-15T04:31:40;97261.03;;;14.05;89.25
5455;BME280;2750;49.050;9.250;2023-01-15T04:36:41;97259.66;;;14.11;88.82
5455;BME280;2750;49.050;9.250;2023-01-15T04:41:46;97274.16;;;13.94;90.15
5455;BME280;2750;49.050;9.250;2023-01-15T04:47:06;97293.44;;;13.61;91.19
5455;BME280;2750;49.050;9.250;2023-01-15T04:52:08;97366.25;;;11.99;99.21
5455;BME280;2750;49.050;9.250;2023-01-15T04:57:10;97359.84;;;11.57;100.00
5455;BME280;2750;49.050;9.250;2023-01-15T05:02:13;97388.06;;;11.27;100.00
5455;BME280;2750;49.050;9.250;2023-01-15T05:07:15;97385.47;;;11.27;100.00
5455;BME280;2750;49.050;9.250;2023-01-15T05:12:17;97395.97;;;11.13;100.00
5455;BME280;2750;49.050;9.250;2023-01-15T05:17:19;97399.72;;;11.09;100.00
5455;BME280;2750;49.050;9.250;2023-01-15T05:22:21;97413.00;;;11.17;100.00
5455;BME280;2750;49.050;9.250;2023-01-15T05:27:23;97418.31;;;11.63;100.00
5455;BME280;2750;49.050;9.250;2023-01-15T05:32:26;97436.25;;;11.18;100.00
5455;BME280;2750;49.050;9.250;2023-01-15T05:37:28;97454.66;;;10.53;100.00
5455;BME280;2750;49.050;9.250;2023-01-15T05:42:30;97462.41;;;10.79;100.00
5455;BME280;2750;49.050;9.250;2023-01-15T05:47:33;97448.94;;;10.61;100.00
5455;BME280;2750;49.050;9.250;2023-01-15T05:52:35;97456.59;;;10.25;100.00
5455;BME280;2750;49.050;9.250;2023-01-15T05:57:36;97478.25;;;10.24;100.00
5455;BME280;2750;49.050;9.250;2023-01-15T06:02:39;97488.13;;;10.04;100.00
5455;BME280;2750;49.050;9.250;2023-01-15T06:07:41;97489.34;;;9.86;100.00
5455;BME280;2750;49.050;9.250;2023-01-15T06:12:42;97498.88;;;9.86;100.00
5455;BME280;2750;49.050;9.250;2023-01-15T06:17:48;97495.69;;;9.41;100.00
5455;BME280;2750;49.050;9.250;2023-01-15T06:22:49;97504.91;;;8.90;100.00
5455;BME280;2750;49.050;9.250;2023-01-15T06:27:51;97487.94;;;9.00;100.00
5455;BME280;2750;49.050;9.250;2023-01-15T06:32:56;97526.72;;;8.58;100.00
5455;BME280;2750;49.050;9.250;2023-01-15T06:37:57;97528.47;;;8.86;100.00
5455;BME280;2750;49.050;9.250;2023-01-15T06:42:59;97535.41;;;8.85;100.00
5455;BME280;2750;49.050;9.250;2023-01-15T06:48:19;97573.44;;;8.83;100.00
5455;BME280;2750;49.050;9.250;2023-01-15T06:53:21;97588.69;;;8.74;100.00
5455;BME280;2750;49.050;9.250;2023-01-15T06:58:23;97596.63;;;8.41;100.00
5455;BME280;2750;49.050;9.250;2023-01-15T07:03:26;97622.06;;;8.33;100.00
5455;BME280;2750;49.050;9.250;2023-01-15T07:08:27;97632.91;;;8.39;100.00
5455;BME280;2750;49.050;9.250;2023-01-15T07:13:29;97661.56;;;7.72;100.00
5455;BME280;2750;49.050;9.250;2023-01-15T07:18:32;97668.97;;;7.78;100.00
5455;BME280;2750;49.050;9.250;2023-01-15T07:23:34;97662.31;;;7.58;100.00
5455;BME280;2750;49.050;9.250;2023-01-15T07:28:35;97673.72;;;7.86;100.00
5455;BME280;2750;49.050;9.250;2023-01-15T07:33:38;97675.16;;;7.91;100.00
5455;BME280;2750;49.050;9.250;2023-01-15T07:38:40;97679.47;;;7.75;100.00
5455;BME280;2750;49.050;9.250;2023-01-15T07:43:42;97682.56;;;7.82;100.00
5455;BME280;2750;49.050;9.250;2023-01-15T07:49:04;97672.72;;;7.73;100.00
5455;BME280;2750;49.050;9.250;2023-01-15T07:54:26;97699.31;;;7.90;100.00
5455;BME280;2750;49.050;9.250;2023-01-15T07:59:28;97709.22;;;7.98;100.00
5455;BME280;2750;49.050;9.250;2023-01-15T08:04:31;97720.97;;;7.88;100.00
5455;BME280;2750;49.050;9.250;2023-01-15T08:09:33;97715.72;;;8.05;99.86
5455;BME280;2750;49.050;9.250;2023-01-15T08:14:35;97728.38;;;8.09;100.00
5455;BME280;2750;49.050;9.250;2023-01-15T08:19:55;97749.59;;;7.83;100.00
5455;BME280;2750;49.050;9.250;2023-01-15T08:24:58;97761.59;;;7.84;100.00
5455;BME280;2750;49.050;9.250;2023-01-15T08:30:00;97750.16;;;7.73;100.00
5455;BME280;2750;49.050;9.250;2023-01-15T08:35:03;97766.06;;;7.48;100.00
5455;BME280;2750;49.050;9.250;2023-01-15T08:40:06;97781.88;;;7.25;100.00
5455;BME280;2750;49.050;9.250;2023-01-15T08:45:09;97780.81;;;7.46;100.00
5455;BME280;2750;49.050;9.250;2023-01-15T08:50:12;97789.69;;;7.40;100.00
5455;BME280;2750;49.050;9.250;2023-01-15T08:55:14;97778.84;;;7.34;100.00
5455;BME280;2750;49.050;9.250;2023-01-15T09:00:16;97804.72;;;7.15;100.00
5455;BME280;2750;49.050;9.250;2023-01-15T09:05:19;97817.06;;;7.26;100.00
5455;BME280;2750;49.050;9.250;2023-01-15T09:10:21;97807.13;;;7.01;100.00
5455;BME280;2750;49.050;9.250;2023-01-15T09:15:23;97806.56;;;6.77;100.00
5455;BME280;2750;49.050;9.250;2023-01-15T09:20:26;97826.91;;;7.00;99.54
5455;BME280;2750;49.050;9.250;2023-01-15T09:25:28;97836.19;;;7.04;100.00
5455;BME280;2750;49.050;9.250;2023-01-15T09:30:29;97848.59;;;6.96;99.31
5455;BME280;2750;49.050;9.250;2023-01-15T09:35:33;97883.44;;;6.86;100.00
5455;BME280;2750;49.050;9.250;2023-01-15T09:40:46;97898.50;;;6.77;99.46
5455;BME280;2750;49.050;9.250;2023-01-15T09:45:53;97882.56;;;6.50;98.40
5455;BME280;2750;49.050;9.250;2023-01-15T09:51:05;97891.63;;;6.77;97.56
5455;BME280;2750;49.050;9.250;2023-01-15T09:56:19;97904.06;;;6.67;98.75
5455;BME280;2750;49.050;9.250;2023-01-15T10:01:25;97916.25;;;6.64;100.00
5455;BME280;2750;49.050;9.250;2023-01-15T10:06:32;97934.72;;;6.92;99.72
5455;BME280;2750;49.050;9.250;2023-01-15T10:11:37;97940.56;;;6.58;100.00
5455;BME280;2750;49.050;9.250;2023-01-15T10:16:58;97955.22;;;6.95;99.15
5455;BME280;2750;49.050;9.250;2023-01-15T10:22:05;97945.41;;;6.46;98.44
5455;BME280;2750;49.050;9.250;2023-01-15T10:27:14;97949.31;;;6.36;99.72
5455;BME280;2750;49.050;9.250;2023-01-15T10:32:24;97948.84;;;6.46;99.68
5455;BME280;2750;49.050;9.250;2023-01-15T10:37:35;97959.34;;;6.42;98.28
5455;BME280;2750;49.050;9.250;2023-01-15T10:42:48;97981.50;;;6.25;98.96
5455;BME280;2750;49.050;9.250;2023-01-15T10:47:55;97972.16;;;6.43;99.82
5455;BME280;2750;49.050;9.250;2023-01-15T10:53:04;97986.13;;;6.17;99.27
5455;BME280;2750;49.050;9.250;2023-01-15T10:58:13;97988.13;;;6.51;98.93
5455;BME280;2750;49.050;9.250;2023-01-15T11:03:20;98006.81;;;6.36;99.20
5455;BME280;2750;49.050;9.250;2023-01-15T11:08:25;98012.78;;;6.37;99.94
5455;BME280;2750;49.050;9.250;2023-01-15T11:13:30;98010.72;;;6.45;99.81
5455;BME280;2750;49.050;9.250;2023-01-15T11:18:49;98018.59;;;6.01;99.24
5455;BME280;2750;49.050;9.250;2023-01-15T11:24:16;98010.97;;;5.76;98.44
5455;BME280;2750;49.050;9.250;2023-01-15T11:29:28;98011.22;;;5.70;98.39
5455;BME280;2750;49.050;9.250;2023-01-15T11:34:31;98007.50;;;5.99;98.45
5455;BME280;2750;49.050;9.250;2023-01-15T11:39:34;98001.09;;;6.09;98.73
5455;BME280;2750;49.050;9.250;2023-01-15T11:44:38;97995.41;;;6.21;96.84
5455;BME280;2750;49.050;9.250;2023-01-15T11:50:00;98003.13;;;6.21;96.01
5455;BME280;2750;49.050;9.250;2023-01-15T11:55:22;98011.03;;;6.57;94.82
5455;BME280;2750;49.050;9.250;2023-01-15T12:00:27;98005.75;;;6.60;94.16
5455;BME280;2750;49.050;9.250;2023-01-15T12:05:33;97998.56;;;6.87;94.22
5455;BME280;2750;49.050;9.250;2023-01-15T12:10:41;97996.16;;;6.64;93.45
5455;BME280;2750;49.050;9.250;2023-01-15T12:16:06;98014.97;;;6.66;94.61
5455;BME280;2750;49.050;9.250;2023-01-15T12:21:21;98018.63;;;6.81;93.91
5455;BME280;2750;49.050;9.250;2023-01-15T12:26:30;98017.59;;;6.64;94.29
5455;BME280;2750;49.050;9.250;2023-01-15T12:31:36;98016.00;;;6.62;94.39
5455;BME280;2750;49.050;9.250;2023-01-15T12:36:44;98031.94;;;6.51;93.15
5455;BME280;2750;49.050;9.250;2023-01-15T12:41:53;98036.59;;;6.82;92.53
5455;BME280;2750;49.050;9.250;2023-01-15T12:47:17;98030.03;;;6.75;92.08
5455;BME280;2750;49.050;9.250;2023-01-15T12:52:24;98025.63;;;6.97;90.45
5455;BME280;2750;49.050;9.250;2023-01-15T12:57:33;98036.47;;;6.85;90.75
5455;BME280;2750;49.050;9.250;2023-01-15T13:02:41;98036.34;;;7.26;89.52
5455;BME280;2750;49.050;9.250;2023-01-15T13:07:55;98049.94;;;7.10;89.41
5455;BME280;2750;49.050;9.250;2023-01-15T13:13:12;98051.06;;;7.24;88.63
5455;BME280;2750;49.050;9.250;2023-01-15T13:18:21;98057.00;;;6.87;89.86
5455;BME280;2750;49.050;9.250;2023-01-15T13:23:39;98062.47;;;6.99;90.75
5455;BME280;2750;49.050;9.250;2023-01-15T13:28:55;98069.88;;;7.07;90.29
5455;BME280;2750;49.050;9.250;2023-01-15T13:34:06;98068.84;;;7.30;88.55
5455;BME280;2750;49.050;9.250;2023-01-15T13:39:17;98062.63;;;6.96;88.17
5455;BME280;2750;49.050;9.250;2023-01-15T13:44:23;98069.53;;;7.52;87.03
5455;BME280;2750;49.050;9.250;2023-01-15T13:49:30;98082.31;;;7.74;85.79
5455;BME280;2750;49.050;9.250;2023-01-15T13:54:39;98089.84;;;7.41;85.98
5455;BME280;2750;49.050;9.250;2023-01-15T13:59:43;98107.69;;;7.64;85.33
5455;BME280;2750;49.050;9.250;2023-01-15T14:04:45;98096.72;;;7.96;85.45
5455;BME280;2750;49.050;9.250;2023-01-15T14:09:47;98110.91;;;7.69;85.82
5455;BME280;2750;49.050;9.250;2023-01-15T14:15:06;98112.59;;;8.06;83.96
5455;BME280;2750;49.050;9.250;2023-01-15T14:20:30;98106.56;;;7.88;84.04
5455;BME280;2750;49.050;9.250;2023-01-15T14:25:48;98117.19;;;8.01;83.96
5455;BME280;2750;49.050;9.250;2023-01-15T14:31:13;98130.66;;;8.25;83.06
5455;BME280;2750;49.050;9.250;2023-01-15T14:36:22;98127.22;;;8.07;84.93
5455;BME280;2750;49.050;9.250;2023-01-15T14:41:27;98127.75;;;8.49;82.16
5455;BME280;2750;49.050;9.250;2023-01-15T14:46:32;98120.28;;;9.12;81.92
5455;BME280;2750;49.050;9.250;2023-01-15T14:51:45;98130.63;;;9.45;80.62
5455;BME280;2750;49.050;9.250;2023-01-15T14:56:50;98129.50;;;9.00;79.23
5455;BME280;2750;49.050;9.250;2023-01-15T15:01:56;98127.69;;;8.68;78.55
5455;BME280;2750;49.050;9.250;2023-01-15T15:07:01;98134.91;;;8.96;79.47
5455;BME280;2750;49.050;9.250;2023-01-15T15:12:16;98155.06;;;8.55;80.52
5455;BME280;2750;49.050;9.250;2023-01-15T15:17:29;98158.84;;;8.31;81.44
5455;BME280;2750;49.050;9.250;2023-01-15T15:22:34;98171.38;;;8.38;81.66
5455;BME280;2750;49.050;9.250;2023-01-15T15:27:36;98178.03;;;8.06;81.68
5455;BME280;2750;49.050;9.250;2023-01-15T15:32:39;98163.16;;;8.11;80.98
5455;BME280;2750;49.050;9.250;2023-01-15T15:37:43;98149.44;;;8.47;80.63
5455;BME280;2750;49.050;9.250;2023-01-15T15:42:49;98141.06;;;8.42;80.36
5455;BME280;2750;49.050;9.250;2023-01-15T15:48:15;98119.84;;;8.16;80.38
5455;BME280;2750;49.050;9.250;2023-01-15T15:53:34;98114.69;;;7.81;82.80
5455;BME280;2750;49.050;9.250;2023-01-15T15:58:36;98115.38;;;7.65;81.86
5455;BME280;2750;49.050;9.250;2023-01-15T16:03:46;98104.22;;;7.65;83.51
5455;BME280;2750;49.050;9.250;2023-01-15T16:08:51;98093.19;;;7.43;83.02
5455;BME280;2750;49.050;9.250;2023-01-15T16:13:55;98087.81;;;7.29;83.74
5455;BME280;2750;49.050;9.250;2023-01-15T16:19:00;98087.94;;;7.07;82.59
5455;BME280;2750;49.050;9.250;2023-01-15T16:24:03;98093.28;;;7.02;83.22
5455;BME280;2750;49.050;9.250;2023-01-15T16:29:14;98104.56;;;7.00;83.50
5455;BME280;2750;49.050;9.250;2023-01-15T16:34:21;98096.56;;;7.06;81.97
5455;BME280;2750;49.050;9.250;2023-01-15T16:39:26;98093.41;;;6.99;82.46
5455;BME280;2750;49.050;9.250;2023-01-15T16:44:36;98092.00;;;7.12;83.02
5455;BME280;2750;49.050;9.250;2023-01-15T16:54:50;98082.34;;;6.97;85.53
5455;BME280;2750;49.050;9.250;2023-01-15T17:00:00;98073.25;;;6.89;85.08
5455;BME280;2750;49.050;9.250;2023-01-15T17:05:13;98081.19;;;6.84;83.27
5455;BME280;2750;49.050;9.250;2023-01-15T17:10:25;98083.63;;;6.67;84.53
5455;BME280;2750;49.050;9.250;2023-01-15T17:15:38;98073.72;;;6.58;84.60
5455;BME280;2750;49.050;9.250;2023-01-15T17:20:40;98067.75;;;6.57;85.15
5455;BME280;2750;49.050;9.250;2023-01-15T17:25:45;98056.47;;;6.40;85.74
5455;BME280;2750;49.050;9.250;2023-01-15T17:30:47;98060.91;;;6.36;85.79
5455;BME280;2750;49.050;9.250;2023-01-15T17:35:51;98067.16;;;6.51;85.37
5455;BME280;2750;49.050;9.250;2023-01-15T17:40:57;98065.47;;;6.50;86.15
5455;BME280;2750;49.050;9.250;2023-01-15T17:45:59;98050.91;;;6.08;86.39
5455;BME280;2750;49.050;9.250;2023-01-15T17:51:03;98056.81;;;6.10;86.41
5455;BME280;2750;49.050;9.250;2023-01-15T17:56:07;98061.97;;;6.10;87.06
5455;BME280;2750;49.050;9.250;2023-01-15T18:01:28;98054.94;;;6.14;85.62
5455;BME280;2750;49.050;9.250;2023-01-15T18:06:52;98040.22;;;6.17;85.93
5455;BME280;2750;49.050;9.250;2023-01-15T18:11:55;98040.28;;;6.16;86.04
5455;BME280;2750;49.050;9.250;2023-01-15T18:16:56;98042.56;;;6.23;85.20
5455;BME280;2750;49.050;9.250;2023-01-15T18:21:58;98040.09;;;6.20;85.29
5455;BME280;2750;49.050;9.250;2023-01-15T18:27:01;98038.75;;;6.12;86.33
5455;BME280;2750;49.050;9.250;2023-01-15T18:32:03;98041.72;;;6.23;85.27
5455;BME280;2750;49.050;9.250;2023-01-15T18:37:05;98033.41;;;6.37;87.01
5455;BME280;2750;49.050;9.250;2023-01-15T18:42:09;98022.56;;;6.29;85.78
5455;BME280;2750;49.050;9.250;2023-01-15T18:47:28;98018.47;;;6.24;87.12
5455;BME280;2750;49.050;9.250;2023-01-15T18:52:30;98001.97;;;6.08;86.47
5455;BME280;2750;49.050;9.250;2023-01-15T18:57:51;98014.53;;;6.16;85.80
5455;BME280;2750;49.050;9.250;2023-01-15T19:02:53;98009.53;;;6.13;85.70
5455;BME280;2750;49.050;9.250;2023-01-15T19:07:54;98014.66;;;6.13;84.81
5455;BME280;2750;49.050;9.250;2023-01-15T19:12:57;98013.38;;;6.23;84.12
5455;BME280;2750;49.050;9.250;2023-01-15T19:18:01;98008.94;;;6.47;83.12
5455;BME280;2750;49.050;9.250;2023-01-15T19:23:21;97997.16;;;6.01;86.52
5455;BME280;2750;49.050;9.250;2023-01-15T19:28:24;98005.94;;;5.95;84.52
5455;BME280;2750;49.050;9.250;2023-01-15T19:33:25;97996.66;;;5.91;85.89
5455;BME280;2750;49.050;9.250;2023-01-15T19:38:28;97993.94;;;6.16;84.54
5455;BME280;2750;49.050;9.250;2023-01-15T19:43:31;98000.78;;;6.17;84.45
5455;BME280;2750;49.050;9.250;2023-01-15T19:48:50;97997.31;;;6.37;84.48
5455;BME280;2750;49.050;9.250;2023-01-15T19:54:11;97984.34;;;6.40;83.72
5455;BME280;2750;49.050;9.250;2023-01-15T19:59:14;97972.69;;;6.31;83.18
5455;BME280;2750;49.050;9.250;2023-01-15T20:04:15;97966.16;;;6.02;84.14
5455;BME280;2750;49.050;9.250;2023-01-15T20:09:17;97952.66;;;6.38;83.46
5455;BME280;2750;49.050;9.250;2023-01-15T20:14:20;97957.47;;;6.45;82.23
5455;BME280;2750;49.050;9.250;2023-01-15T20:19:21;97947.63;;;6.35;82.96
5455;BME280;2750;49.050;9.250;2023-01-15T20:24:23;97940.09;;;6.30;82.94
5455;BME280;2750;49.050;9.250;2023-01-15T20:29:26;97935.09;;;5.87;83.59
5455;BME280;2750;49.050;9.250;2023-01-15T20:34:27;97915.81;;;5.75;84.95
5455;BME280;2750;49.050;9.250;2023-01-15T20:39:30;97908.63;;;5.63;84.63
5455;BME280;2750;49.050;9.250;2023-01-15T20:44:33;97913.09;;;5.58;85.10
5455;BME280;2750;49.050;9.250;2023-01-15T20:50:00;97907.72;;;5.84;83.87
5455;BME280;2750;49.050;9.250;2023-01-15T20:55:02;97897.31;;;5.67;86.30
5455;BME280;2750;49.050;9.250;2023-01-15T21:00:08;97885.84;;;5.94;84.44
5455;BME280;2750;49.050;9.250;2023-01-15T21:05:10;97884.44;;;5.87;84.29
5455;BME280;2750;49.050;9.250;2023-01-15T21:10:13;97873.63;;;5.99;85.37
5455;BME280;2750;49.050;9.250;2023-01-15T21:15:16;97870.88;;;6.04;83.12
5455;BME280;2750;49.050;9.250;2023-01-15T21:20:18;97862.59;;;5.97;85.00
5455;BME280;2750;49.050;9.250;2023-01-15T21:25:19;97846.31;;;5.75;83.65
5455;BME280;2750;49.050;9.250;2023-01-15T21:30:22;97846.97;;;5.80;86.03
5455;BME280;2750;49.050;9.250;2023-01-15T21:35:25;97839.78;;;5.88;83.53
5455;BME280;2750;49.050;9.250;2023-01-15T21:40:26;97828.97;;;5.80;84.44
5455;BME280;2750;49.050;9.250;2023-01-15T21:45:29;97832.88;;;5.90;87.22
5455;BME280;2750;49.050;9.250;2023-01-15T21:50:30;97838.38;;;5.81;84.16
5455;BME280;2750;49.050;9.250;2023-01-15T21:55:32;97837.59;;;5.99;82.91
5455;BME280;2750;49.050;9.250;2023-01-15T22:00:35;97826.53;;;5.97;83.87
5455;BME280;2750;49.050;9.250;2023-01-15T22:05:37;97812.91;;;6.33;82.61
5455;BME280;2750;49.050;9.250;2023-01-15T22:10:39;97801.00;;;6.49;81.34
5455;BME280;2750;49.050;9.250;2023-01-15T22:15:42;97792.59;;;6.08;82.22
5455;BME280;2750;49.050;9.250;2023-01-15T22:20:43;97797.38;;;5.97;83.82
5455;BME280;2750;49.050;9.250;2023-01-15T22:25:45;97783.47;;;6.01;83.76
5455;BME280;2750;49.050;9.250;2023-01-15T22:30:48;97780.91;;;5.81;83.97
5455;BME280;2750;49.050;9.250;2023-01-15T22:35:56;97774.88;;;5.82;83.81
5455;BME280;2750;49.050;9.250;2023-01-15T22:40:58;97770.31;;;5.68;85.10
5455;BME280;2750;49.050;9.250;2023-01-15T22:46:09;97748.75;;;5.52;83.80
5455;BME280;2750;49.050;9.250;2023-01-15T22:51:11;97752.06;;;5.54;85.16
5455;BME280;2750;49.050;9.250;2023-01-15T22:56:12;97746.97;;;5.52;84.73
5455;BME280;2750;49.050;9.250;2023-01-15T23:01:15;97738.97;;;5.40;83.87
5455;BME280;2750;49.050;9.250;2023-01-15T23:06:17;97729.94;;;5.50;84.08
5455;BME280;2750;49.050;9.250;2023-01-15T23:11:19;97722.19;;;5.51;83.63
5455;BME280;2750;49.050;9.250;2023-01-15T23:16:22;97712.84;;;5.49;83.35
5455;BME280;2750;49.050;9.250;2023-01-15T23:21:25;97716.63;;;5.79;83.09
5455;BME280;2750;49.050;9.250;2023-01-15T23:26:29;97701.88;;;5.83;81.93
5455;BME280;2750;49.050;9.250;2023-01-15T23:31:32;97697.91;;;5.96;81.96
5455;BME280;2750;49.050;9.250;2023-01-15T23:36:34;97688.03;;;6.05;81.50
5455;BME280;2750;49.050;9.250;2023-01-15T23:41:35;97682.50;;;6.13;81.75
5455;BME280;2750;49.050;9.250;2023-01-15T23:46:55;97684.59;;;6.23;80.26
5455;BME280;2750;49.050;9.250;2023-01-15T23:51:57;97676.66;;;6.28;80.18
5455;BME280;2750;49.050;9.250;2023-01-15T23:57:00;97662.34;;;6.40;81.43
